Time;durP1;ratioP1;P1;durP2;ratioP2;P2;SDS_P1;SDS_P2;PMS_P1;PMS_P2;Temp;Humidity;BMP_temperature;BMP_pressure;BME280_temperature;BME280_humidity;BME280_pressure;Samples;Min_cycle;Max_cycle;Signal;HPM_P1;HPM_P2
2022/11/20 00:01:28;;;;;;;;;9.75;7.25;;;;;9.84;66.26;101061.09;4954894;28;45358;-70
2022/11/20 00:03:55;;;;;;;;;5.00;5.00;;;;;9.83;65.97;101064.69;4958384;28;45954;-70
2022/11/20 00:06:22;;;;;;;;;6.50;6.50;;;;;9.79;65.88;101067.53;4975436;28;45463;-71
2022/11/20 00:08:48;;;;;;;;;7.00;7.00;;;;;9.77;65.49;101056.03;4963965;28;45334;-71
2022/11/20 00:11:16;;;;;;;;;9.75;5.00;;;;;9.81;66.06;101054.97;4977354;28;45496;-71
2022/11/20 00:13:47;;;;;;;;;5.00;5.00;;;;;9.61;65.40;101041.47;4964473;28;45395;-71
2022/11/20 00:16:14;;;;;;;;;5.00;5.00;;;;;9.68;65.50;101062.59;4977262;28;45469;-71
2022/11/20 00:18:39;;;;;;;;;6.75;6.75;;;;;9.61;65.46;101060.22;4977494;28;45352;-70
2022/11/20 00:21:07;;;;;;;;;8.00;7.00;;;;;9.63;65.82;101055.66;4977059;28;45167;-71
2022/11/20 00:23:33;;;;;;;;;8.50;8.50;;;;;9.64;65.68;101065.44;4959585;28;45574;-70
2022/11/20 00:26:06;;;;;;;;;6.25;4.00;;;;;9.64;65.71;101057.41;4976848;28;45441;-71
2022/11/20 00:28:31;;;;;;;;;7.50;4.75;;;;;9.63;66.02;101061.88;4977384;28;45242;-71
2022/11/20 05:32:13;;;;;;;;;3.25;2.00;;;;;8.39;67.65;100911.25;4966189;28;45549;-70
2022/11/20 05:34:38;;;;;;;;;3.00;3.00;;;;;8.45;67.29;100909.25;4975275;28;45544;-70
2022/11/20 05:37:04;;;;;;;;;3.00;3.00;;;;;8.49;67.26;100902.88;4976403;28;45310;-69
2022/11/20 05:39:30;;;;;;;;;7.50;3.00;;;;;8.47;67.30;100906.53;4975738;28;46152;-70
2022/11/20 05:44:39;;;;;;;;;3.00;3.00;;;;;8.52;67.71;100899.22;4965232;28;45433;-70
2022/11/20 05:47:05;;;;;;;;;2.00;2.00;;;;;8.49;67.62;100907.34;4978302;28;47232;-69
2022/11/20 05:49:31;;;;;;;;;3.25;3.00;;;;;8.44;67.39;100907.50;4978706;28;46295;-70
2022/11/20 05:51:56;;;;;;;;;3.00;3.00;;;;;8.45;67.59;100909.25;4977579;28;45355;-69
2022/11/20 05:54:21;;;;;;;;;3.00;3.00;;;;;8.35;67.22;100908.69;4976232;28;45297;-69
2022/11/20 05:56:47;;;;;;;;;6.00;6.00;;;;;8.29;67.45;100911.53;4975705;28;45477;-70
2022/11/20 05:59:14;;;;;;;;;3.75;3.75;;;;;8.28;67.91;100915.13;4975795;28;45468;-70
2022/11/20 06:01:39;;;;;;;;;4.00;4.00;;;;;8.17;67.77;100903.03;4975693;28;45461;-70
2022/11/20 06:04:04;;;;;;;;;1.50;1.50;;;;;8.25;68.19;100911.69;4975031;28;45389;-70
2022/11/20 06:06:30;;;;;;;;;3.25;2.75;;;;;8.24;68.09;100900.16;4975319;28;51633;-70
2022/11/20 06:08:55;;;;;;;;;3.00;3.00;;;;;8.27;68.27;100902.69;4957915;28;46087;-70
2022/11/20 06:11:21;;;;;;;;;4.25;3.00;;;;;8.24;68.19;100892.13;4966340;28;45422;-68
2022/11/20 06:13:47;;;;;;;;;10.75;6.00;;;;;8.26;68.26;100894.72;4976034;28;45403;-71
2022/11/20 06:16:15;;;;;;;;;4.75;3.75;;;;;8.29;68.17;100889.28;4975426;28;46455;-70
2022/11/20 06:18:41;;;;;;;;;5.75;4.50;;;;;8.29;68.11;100892.84;4975591;28;45613;-70
2022/11/20 06:21:09;;;;;;;;;4.25;3.00;;;;;8.27;67.83;100884.00;4975346;28;45377;-70
2022/11/20 06:23:36;;;;;;;;;4.50;4.50;;;;;8.40;68.09;100891.63;4975696;28;45422;-71
2022/11/20 06:26:07;;;;;;;;;4.75;4.75;;;;;8.40;67.44;100879.16;4955887;28;45539;-70
2022/11/20 06:28:33;;;;;;;;;4.00;4.00;;;;;8.46;67.36;100881.59;4976769;28;46187;-69
2022/11/20 06:30:59;;;;;;;;;6.00;4.00;;;;;8.39;67.92;100880.06;4974088;28;45303;-68
2022/11/20 06:33:25;;;;;;;;;3.50;3.50;;;;;8.30;67.82;100883.03;4956125;28;45482;-74
2022/11/20 06:35:50;;;;;;;;;4.00;4.00;;;;;8.28;67.72;100884.88;4953776;28;46745;-71
2022/11/20 06:38:16;;;;;;;;;6.50;5.50;;;;;8.20;67.95;100861.09;4957886;28;46934;-71
2022/11/20 06:40:42;;;;;;;;;3.00;3.00;;;;;8.26;67.81;100876.03;4975040;28;45428;-69
2022/11/20 06:43:09;;;;;;;;;2.75;2.75;;;;;8.34;67.76;100882.00;4958060;28;45382;-73
2022/11/20 06:45:35;;;;;;;;;2.25;2.25;;;;;8.37;67.53;100884.59;4975203;28;45278;-71
2022/11/20 06:48:01;;;;;;;;;3.00;3.00;;;;;8.33;67.61;100869.63;4975186;28;45561;-68
2022/11/20 06:50:27;;;;;;;;;1.75;1.50;;;;;8.30;66.87;100875.88;4974973;28;45380;-71
2022/11/20 06:52:53;;;;;;;;;3.00;1.75;;;;;8.28;67.43;100874.19;4954878;28;45243;-73
2022/11/20 06:55:18;;;;;;;;;3.00;3.00;;;;;8.32;67.33;100887.44;4968395;28;45427;-69
2022/11/20 06:57:43;;;;;;;;;2.00;2.00;;;;;8.35;67.56;100881.09;4955632;28;46127;-72
2022/11/20 07:00:09;;;;;;;;;2.00;2.00;;;;;8.26;67.21;100876.03;4955628;28;45271;-72
2022/11/20 07:02:34;;;;;;;;;3.00;2.00;;;;;8.38;67.43;100890.81;4955994;28;45575;-71
2022/11/20 07:05:00;;;;;;;;;2.25;2.00;;;;;8.44;67.40;100890.59;4955636;28;45485;-71
2022/11/20 07:07:25;;;;;;;;;3.00;3.00;;;;;8.45;67.01;100893.22;4947210;28;46205;-70
2022/11/20 07:09:50;;;;;;;;;3.00;3.00;;;;;8.53;67.26;100896.47;4971656;28;45392;-70
2022/11/20 07:12:16;;;;;;;;;3.75;3.00;;;;;8.50;67.18;100885.06;4967313;28;45393;-70
2022/11/20 07:14:41;;;;;;;;;3.00;3.00;;;;;8.56;66.80;100887.50;4975308;28;45436;-70
2022/11/20 07:17:06;;;;;;;;;3.75;3.75;;;;;8.63;66.73;100895.25;4980704;28;45481;-71
2022/11/20 07:19:32;;;;;;;;;3.00;3.00;;;;;8.59;66.18;100884.72;4980094;28;45567;-70
2022/11/20 07:21:57;;;;;;;;;2.75;2.75;;;;;8.56;66.21;100888.38;4980970;28;45512;-71
2022/11/20 07:24:23;;;;;;;;;3.00;3.00;;;;;8.56;66.49;100896.38;4980776;28;45506;-70
2022/11/20 07:26:49;;;;;;;;;3.75;2.25;;;;;8.54;66.17;100890.22;4981228;28;47704;-71
2022/11/20 07:29:15;;;;;;;;;2.00;2.00;;;;;8.61;66.33;100896.22;4981385;28;45370;-71
2022/11/20 07:31:40;;;;;;;;;7.00;3.00;;;;;8.59;65.89;100890.06;4981400;28;45441;-69
2022/11/20 07:34:06;;;;;;;;;3.25;3.25;;;;;8.58;65.43;100889.19;4981076;28;45506;-70
2022/11/20 07:36:31;;;;;;;;;4.00;4.00;;;;;8.56;65.87;100888.38;4981374;28;45262;-70
2022/11/20 07:38:56;;;;;;;;;7.00;3.00;;;;;8.53;65.82;100888.47;4980742;28;45411;-71
2022/11/20 07:41:21;;;;;;;;;4.00;4.00;;;;;8.49;65.44;100894.00;4981478;28;45333;-73
2022/11/20 07:43:47;;;;;;;;;2.00;2.00;;;;;8.47;65.21;100890.50;4963507;28;45982;-71
2022/11/20 07:46:12;;;;;;;;;3.00;3.00;;;;;8.42;65.72;100885.28;4981515;28;45265;-71
2022/11/20 07:48:37;;;;;;;;;5.50;4.00;;;;;8.44;65.43;100893.25;4981404;28;45413;-70
2022/11/20 07:51:03;;;;;;;;;7.00;5.25;;;;;8.43;65.60;100880.81;4982367;28;48594;-71
2022/11/20 07:53:28;;;;;;;;;7.25;6.00;;;;;8.47;65.70;100895.84;4981626;28;45207;-71
2022/11/20 07:55:54;;;;;;;;;4.00;4.00;;;;;8.34;65.82;100882.88;4981750;28;47725;-70
2022/11/20 07:58:21;;;;;;;;;5.00;4.00;;;;;8.44;65.34;100890.59;4981355;28;45258;-72
2022/11/20 08:00:46;;;;;;;;;4.00;3.00;;;;;8.47;65.16;100888.69;4981904;28;45287;-71
2022/11/20 08:03:13;;;;;;;;;4.00;4.00;;;;;8.44;65.47;100891.47;4980497;28;45652;-73
2022/11/20 08:05:39;;;;;;;;;2.75;2.25;;;;;8.32;65.45;100866.06;4981088;28;45495;-73
2022/11/20 08:08:04;;;;;;;;;4.50;4.50;;;;;8.35;65.72;100868.59;4980648;28;45492;-72
2022/11/20 08:10:29;;;;;;;;;3.25;3.00;;;;;8.39;65.93;100874.72;4963230;28;45459;-75
2022/11/20 08:15:40;;;;;;;;;5.00;5.00;;;;;8.30;65.97;100880.34;4980648;28;45326;-73
2022/11/20 08:18:11;;;;;;;;;4.25;3.00;;;;;8.37;65.90;100889.94;4962938;28;45422;-72
2022/11/20 08:20:37;;;;;;;;;4.00;4.00;;;;;8.34;66.34;100879.34;4963155;28;45434;-69
2022/11/20 08:23:07;;;;;;;;;3.50;3.50;;;;;8.29;66.52;100867.94;4980159;28;45486;-68
2022/11/20 08:25:35;;;;;;;;;4.00;4.00;;;;;8.40;66.33;100879.16;4980361;28;45346;-70
2022/11/20 08:28:06;;;;;;;;;3.00;3.00;;;;;8.46;66.29;100873.59;4958911;28;45405;-68
2022/11/20 08:30:32;;;;;;;;;4.75;4.75;;;;;8.49;66.36;100873.50;4977796;28;45180;-69
2022/11/20 08:33:17;;;;;;;;;3.50;3.00;;;;;8.51;66.64;100874.28;4959298;28;45579;-70
2022/11/20 08:35:42;;;;;;;;;4.75;4.75;;;;;8.54;66.45;100863.50;4977099;28;45383;-69
2022/11/20 08:38:08;;;;;;;;;5.75;5.75;;;;;8.58;67.01;100859.81;4976492;28;45426;-70
2022/11/20 08:40:33;;;;;;;;;3.00;3.00;;;;;8.54;67.14;100838.56;4976998;28;45223;-71
2022/11/20 08:42:59;;;;;;;;;7.00;5.50;;;;;8.77;67.22;100859.13;4977448;28;45501;-68
2022/11/20 08:45:24;;;;;;;;;6.75;5.50;;;;;8.73;67.02;100859.25;4977100;28;46103;-68
2022/11/20 08:47:50;;;;;;;;;6.50;4.00;;;;;8.67;67.30;100845.25;4977243;28;45394;-71
2022/11/20 08:50:16;;;;;;;;;6.00;6.00;;;;;8.77;67.86;100851.97;4977453;28;45499;-69
2022/11/20 08:52:43;;;;;;;;;8.50;5.25;;;;;8.85;67.98;100863.25;4977221;28;45373;-69
2022/11/20 08:55:09;;;;;;;;;8.00;6.00;;;;;8.83;69.21;100841.06;4959384;28;46278;-72
2022/11/20 08:57:36;;;;;;;;;8.00;8.00;;;;;8.83;69.61;100838.41;4956324;28;45724;-71
2022/11/20 09:00:04;;;;;;;;;8.50;8.00;;;;;8.92;69.65;100839.84;4971119;28;45190;-72
2022/11/20 09:02:30;;;;;;;;;5.50;5.50;;;;;8.88;69.54;100836.41;4976967;28;45480;-70
2022/11/20 09:04:55;;;;;;;;;9.00;7.50;;;;;8.95;69.55;100829.91;4976672;28;45484;-71
2022/11/20 09:07:20;;;;;;;;;8.00;6.75;;;;;8.95;69.32;100816.53;4976977;28;45305;-69
2022/11/20 09:09:46;;;;;;;;;7.25;7.25;;;;;9.09;69.01;100832.06;4959023;28;45376;-71
2022/11/20 09:12:11;;;;;;;;;11.25;9.75;;;;;9.12;69.54;100829.25;4976627;28;45354;-71
2022/11/20 09:14:36;;;;;;;;;8.00;8.00;;;;;9.10;69.30;100825.78;4959070;28;47472;-69
2022/11/20 09:17:02;;;;;;;;;6.50;6.50;;;;;8.98;69.08;100805.72;4959411;28;45545;-71
2022/11/20 09:19:27;;;;;;;;;10.75;8.00;;;;;9.06;68.72;100813.44;4976701;28;45377;-71
2022/11/20 09:21:53;;;;;;;;;7.50;7.50;;;;;9.10;69.54;100812.41;4976490;28;45642;-71
2022/11/20 09:24:20;;;;;;;;;10.00;8.75;;;;;9.14;69.39;100826.53;4976230;28;46403;-70
2022/11/20 09:26:45;;;;;;;;;8.25;7.00;;;;;9.04;69.92;100813.50;4976590;28;45365;-70
2022/11/20 09:29:11;;;;;;;;;13.75;9.50;;;;;8.78;69.96;100760.16;4976608;28;45306;-66
2022/11/20 09:31:36;;;;;;;;;7.00;7.00;;;;;8.99;70.72;100795.91;4976477;28;45299;-69
2022/11/20 09:34:02;;;;;;;;;14.75;9.75;;;;;9.04;70.50;100793.91;4975914;28;46206;-68
2022/11/20 09:36:27;;;;;;;;;5.25;5.25;;;;;9.04;71.07;100786.75;4972394;28;45254;-68
2022/11/20 09:38:53;;;;;;;;;10.00;9.00;;;;;9.09;70.69;100790.16;4957459;28;45301;-72
2022/11/20 09:41:37;;;;;;;;;6.00;5.50;;;;;9.13;70.89;100787.34;4958132;28;45164;-70
2022/11/20 09:44:29;;;;;;;;;9.00;7.25;;;;;9.10;70.66;100781.16;4971621;28;45436;-74
2022/11/20 09:47:08;;;;;;;;;10.50;9.50;;;;;9.09;71.16;100790.16;4974062;28;45803;-72
2022/11/20 09:49:50;;;;;;;;;9.00;7.75;;;;;9.10;71.39;100781.16;4966418;28;45472;-70
2022/11/20 09:52:26;;;;;;;;;8.75;8.75;;;;;9.08;71.61;100783.06;4956421;28;45585;-69
2022/11/20 09:54:52;;;;;;;;;8.00;8.00;;;;;9.03;71.29;100776.13;4956137;28;46468;-73
2022/11/20 09:57:23;;;;;;;;;8.50;8.25;;;;;8.98;72.50;100788.81;4956229;28;45298;-70
2022/11/20 09:59:58;;;;;;;;;8.25;4.50;;;;;8.94;72.77;100781.81;4956193;28;45393;-72
2022/11/20 10:02:23;;;;;;;;;5.75;4.00;;;;;8.88;72.80;100784.75;4962496;28;45495;-70
2022/11/20 10:05:04;;;;;;;;;7.75;7.75;;;;;8.91;73.34;100779.28;4974758;28;45890;-71
2022/11/20 10:07:44;;;;;;;;;8.25;7.00;;;;;8.95;73.22;100779.09;4975808;28;45350;-69
2022/11/20 10:10:40;;;;;;;;;8.50;8.50;;;;;9.00;73.38;100784.28;4956885;28;45445;-73
2022/11/20 10:13:24;;;;;;;;;8.00;8.00;;;;;8.98;74.12;100770.97;4973932;28;45693;-71
2022/11/20 10:16:07;;;;;;;;;4.75;3.00;;;;;8.94;74.75;100768.47;4974617;28;45406;-71
2022/11/20 10:18:57;;;;;;;;;7.00;7.00;;;;;8.92;75.39;100760.53;4975704;28;45329;-71
2022/11/20 10:21:55;;;;;;;;;4.00;4.00;;;;;8.95;75.25;100751.50;4975358;28;45592;-71
2022/11/20 10:24:45;;;;;;;;;7.75;7.00;;;;;8.92;76.28;100731.13;4947717;28;46362;-71
2022/11/20 10:27:26;;;;;;;;;9.00;8.00;;;;;8.98;76.45;100740.69;4975333;28;47492;-71
2022/11/20 10:30:03;;;;;;;;;5.25;5.25;;;;;8.94;76.77;100729.22;4975290;28;45473;-71
2022/11/20 10:32:41;;;;;;;;;9.50;7.00;;;;;9.11;77.05;100729.44;4957820;28;45424;-70
2022/11/20 10:35:20;;;;;;;;;4.50;4.50;;;;;9.24;76.53;100727.16;4975503;28;45219;-71
2022/11/20 10:37:51;;;;;;;;;6.25;6.00;;;;;9.31;75.90;100725.94;4975219;28;46276;-72
2022/11/20 10:40:26;;;;;;;;;2.00;2.00;;;;;9.30;76.32;100716.19;4975303;28;45297;-70
2022/11/20 10:43:11;;;;;;;;;4.25;2.00;;;;;9.42;75.76;100717.50;4975255;28;45441;-70
2022/11/20 10:46:08;;;;;;;;;3.75;3.75;;;;;9.55;75.61;100720.50;4974937;28;45356;-72
2022/11/20 10:48:36;;;;;;;;;3.75;3.00;;;;;9.60;75.69;100724.75;4975366;28;46263;-71
2022/11/20 10:51:41;;;;;;;;;4.50;3.75;;;;;9.60;75.42;100732.78;4974403;28;45408;-72
2022/11/20 10:54:34;;;;;;;;;3.25;3.00;;;;;9.53;75.98;100723.25;4975033;28;45354;-71
2022/11/20 10:57:23;;;;;;;;;3.50;3.50;;;;;9.39;76.61;100699.75;4974606;28;45244;-74
2022/11/20 11:00:01;;;;;;;;;3.00;3.00;;;;;9.44;78.02;100720.97;4915709;28;45409;-75
2022/11/20 11:02:51;;;;;;;;;6.00;2.00;;;;;9.46;78.99;100714.59;4962587;28;45504;-74
2022/11/20 11:05:46;;;;;;;;;3.50;3.50;;;;;9.42;78.98;100721.03;4965258;28;45505;-72
2022/11/20 11:08:15;;;;;;;;;6.75;3.75;;;;;9.37;79.08;100696.25;4975135;28;45492;-71
2022/11/20 11:10:56;;;;;;;;;5.25;3.25;;;;;9.44;79.26;100702.25;4974376;28;45314;-72
2022/11/20 11:13:23;;;;;;;;;6.75;6.75;;;;;9.45;79.30;100702.16;4973845;28;45334;-71
2022/11/20 11:15:48;;;;;;;;;4.50;4.50;;;;;9.30;78.77;100689.44;4975096;28;45515;-74
2022/11/20 11:18:28;;;;;;;;;4.25;3.50;;;;;9.41;79.51;100689.88;4975501;28;45285;-74
2022/11/20 11:20:54;;;;;;;;;4.50;4.50;;;;;9.47;79.42;100692.28;4976849;28;45277;-73
2022/11/20 11:23:36;;;;;;;;;5.50;3.00;;;;;9.55;79.00;100689.28;4967686;28;46189;-72
2022/11/20 11:26:03;;;;;;;;;4.00;4.00;;;;;9.46;78.92;100673.59;4976672;28;45248;-71
2022/11/20 11:28:29;;;;;;;;;6.75;3.50;;;;;9.55;78.82;100691.06;4975081;28;45207;-71
2022/11/20 11:30:55;;;;;;;;;3.00;3.00;;;;;9.46;79.06;100686.97;4974549;28;45495;-71
2022/11/20 11:33:23;;;;;;;;;2.75;2.75;;;;;9.43;78.92;100679.09;4974453;28;45334;-71
2022/11/20 11:35:58;;;;;;;;;3.00;3.00;;;;;9.36;78.66;100685.63;4974162;28;45540;-71
2022/11/20 11:38:36;;;;;;;;;2.25;2.25;;;;;9.32;78.96;100700.94;4974224;28;45427;-71
2022/11/20 11:41:04;;;;;;;;;2.00;2.00;;;;;9.25;78.71;100680.75;4974670;28;46386;-71
2022/11/20 11:46:29;;;;;;;;;4.25;3.00;;;;;9.31;78.37;100674.25;4975219;28;45384;-73
2022/11/20 11:49:03;;;;;;;;;2.00;2.00;;;;;9.19;78.96;100672.94;4974489;28;45548;-72
2022/11/20 11:51:59;;;;;;;;;2.75;2.75;;;;;9.15;79.03;100673.16;4970753;28;46371;-70
2022/11/20 11:54:54;;;;;;;;;1.50;1.50;;;;;9.10;78.66;100659.97;4952285;28;45564;-69
2022/11/20 11:57:36;;;;;;;;;2.00;2.00;;;;;9.08;78.57;100657.38;4971298;28;45615;-70
2022/11/20 12:00:11;;;;;;;;;3.00;3.00;;;;;9.15;78.53;100659.78;4973826;28;45214;-71
2022/11/20 12:02:58;;;;;;;;;4.50;2.50;;;;;9.11;78.32;100630.47;4975905;28;46225;-70
2022/11/20 12:05:39;;;;;;;;;5.50;5.50;;;;;9.25;78.66;100650.44;4977595;28;45334;-70
2022/11/20 12:08:09;;;;;;;;;2.50;2.50;;;;;9.22;78.55;100642.53;4975781;28;45447;-70
2022/11/20 12:10:40;;;;;;;;;1.25;1.25;;;;;9.23;78.32;100642.47;4977644;28;45868;-71
2022/11/20 12:13:33;;;;;;;;;2.00;2.00;;;;;9.25;78.62;100634.38;4977178;28;46165;-75
2022/11/20 12:15:59;;;;;;;;;2.50;2.50;;;;;9.34;78.66;100632.19;4978032;28;45445;-71
2022/11/20 12:18:25;;;;;;;;;1.50;1.50;;;;;9.25;77.85;100596.94;4977349;28;45244;-73
2022/11/20 12:21:12;;;;;;;;;5.00;3.25;;;;;9.46;77.94;100634.34;4977191;28;45522;-71
2022/11/20 12:24:05;;;;;;;;;4.00;4.00;;;;;9.44;77.16;100616.63;4974262;28;45383;-73
2022/11/20 12:26:48;;;;;;;;;2.50;2.50;;;;;9.57;76.94;100635.69;4959306;28;46021;-75
2022/11/20 12:29:14;;;;;;;;;3.00;3.00;;;;;9.59;76.97;100620.44;4958543;28;45639;-74
2022/11/20 12:32:13;;;;;;;;;3.00;3.00;;;;;9.64;76.45;100631.78;4959110;28;45686;-76
2022/11/20 12:34:57;;;;;;;;;3.50;3.50;;;;;9.71;76.82;100620.75;4976966;28;45393;-74
2022/11/20 12:37:47;;;;;;;;;3.00;3.00;;;;;9.79;76.77;100637.34;4976790;28;45452;-71
2022/11/20 12:40:28;;;;;;;;;3.00;2.75;;;;;9.67;76.84;100620.97;4959173;28;45390;-72
2022/11/20 12:46:39;;;;;;;;;4.00;3.50;;;;;9.81;77.10;100642.63;4977276;28;45290;-72
2022/11/20 12:49:23;;;;;;;;;2.00;2.00;;;;;9.69;78.29;100638.72;4976771;28;45414;-72
2022/11/20 12:52:04;;;;;;;;;4.25;4.25;;;;;9.64;79.23;100650.53;4976754;28;45417;-72
2022/11/20 12:54:53;;;;;;;;;3.00;3.00;;;;;9.68;79.99;100647.66;4977201;28;45365;-72
2022/11/20 12:57:36;;;;;;;;;5.00;5.00;;;;;9.67;80.49;100648.59;4979385;28;46518;-71
2022/11/20 13:00:19;;;;;;;;;4.25;4.25;;;;;9.65;80.99;100655.81;4979821;28;45350;-70
2022/11/20 13:03:19;;;;;;;;;4.25;3.00;;;;;9.67;80.94;100647.72;4979476;28;45405;-77
2022/11/20 13:06:05;;;;;;;;;3.00;3.00;;;;;9.75;80.88;100661.66;4979209;28;45520;-73
2022/11/20 13:08:35;;;;;;;;;7.50;4.00;;;;;9.75;81.48;100635.75;4976285;28;46125;-71
2022/11/20 13:11:07;;;;;;;;;6.00;6.00;;;;;9.85;81.61;100622.84;4976742;28;45449;-73
2022/11/20 13:13:47;;;;;;;;;4.75;4.25;;;;;9.95;80.60;100607.22;4975681;28;45459;-73
2022/11/20 13:16:27;;;;;;;;;7.75;6.50;;;;;9.87;81.01;100575.41;4976444;28;45469;-73
2022/11/20 13:18:55;;;;;;;;;4.00;4.00;;;;;10.21;79.74;100610.44;4976405;28;46159;-73
2022/11/20 13:21:35;;;;;;;;;3.25;3.25;;;;;10.09;78.81;100592.25;4976358;28;45362;-73
2022/11/20 13:24:20;;;;;;;;;7.50;6.00;;;;;10.21;78.70;100610.44;4975809;28;45396;-72
2022/11/20 13:26:46;;;;;;;;;4.25;4.25;;;;;10.30;79.02;100624.34;4965573;28;45499;-74
2022/11/20 13:29:18;;;;;;;;;7.50;5.00;;;;;10.46;78.69;100645.00;4976374;28;46068;-71
2022/11/20 13:31:46;;;;;;;;;10.00;5.00;;;;;10.41;78.33;100630.09;4958727;28;45501;-71
2022/11/20 13:34:22;;;;;;;;;5.75;5.00;;;;;10.46;78.06;100633.44;4975854;28;45413;-72
2022/11/20 13:36:51;;;;;;;;;7.00;4.75;;;;;10.53;78.40;100642.94;4971793;28;45517;-77
2022/11/20 13:39:36;;;;;;;;;7.00;7.00;;;;;10.58;78.16;100644.44;4958450;28;46322;-71
2022/11/20 13:42:21;;;;;;;;;6.25;5.50;;;;;10.59;78.59;100639.94;4976741;28;45522;-73
2022/11/20 13:45:08;;;;;;;;;6.75;6.75;;;;;10.64;78.04;100629.84;4961941;28;45482;-76
2022/11/20 13:47:35;;;;;;;;;1.75;0.50;;;;;10.74;77.92;100649.94;4971806;28;45640;-72
2022/11/20 13:50:03;;;;;;;;;5.00;5.00;;;;;10.75;78.26;100643.63;4968909;28;45624;-74
2022/11/20 13:52:48;;;;;;;;;8.25;6.00;;;;;10.78;77.80;100643.50;4975559;28;45435;-73
2022/11/20 13:55:35;;;;;;;;;6.25;6.25;;;;;10.84;78.00;100636.94;4963426;28;45482;-74
2022/11/20 13:58:52;;;;;;;;;7.75;6.00;;;;;10.81;77.90;100623.69;4971839;28;45456;-74
2022/11/20 14:01:24;;;;;;;;;8.25;8.25;;;;;11.28;77.20;100630.25;4905965;28;45472;-73
2022/11/20 14:03:51;;;;;;;;;8.00;7.75;;;;;11.61;75.70;100616.91;4975284;28;45368;-75
2022/11/20 14:06:33;;;;;;;;;11.50;8.00;;;;;11.86;74.71;100629.97;4976039;28;45584;-72
2022/11/20 14:08:59;;;;;;;;;7.25;5.75;;;;;12.13;74.22;100611.50;4975537;28;46401;-76
2022/11/20 14:11:28;;;;;;;;;7.25;6.00;;;;;12.34;72.71;100620.19;4975528;28;45472;-73
2022/11/20 14:14:12;;;;;;;;;5.00;5.00;;;;;12.69;70.97;100605.63;4975981;28;45298;-76
2022/11/20 14:16:38;;;;;;;;;7.25;5.25;;;;;13.09;69.74;100612.31;4975358;28;45339;-73
2022/11/20 14:19:19;;;;;;;;;13.00;6.00;;;;;13.36;68.56;100611.66;4967903;28;46047;-73
2022/11/20 14:21:46;;;;;;;;;5.75;5.75;;;;;13.51;68.09;100608.06;4975325;28;45632;-76
2022/11/20 14:24:12;;;;;;;;;7.25;7.25;;;;;13.75;67.43;100620.03;4974706;28;45544;-74
2022/11/20 14:26:43;;;;;;;;;6.75;5.75;;;;;13.93;66.82;100601.88;4975458;28;45396;-80
2022/11/20 14:29:17;;;;;;;;;7.75;6.75;;;;;13.98;66.53;100584.44;4974904;28;45375;-72
2022/11/20 14:31:45;;;;;;;;;8.00;6.25;;;;;14.27;65.72;100593.41;4964482;28;45544;-77
2022/11/20 14:34:18;;;;;;;;;4.75;4.75;;;;;14.35;64.82;100582.13;4957884;28;46017;-72
2022/11/20 14:36:44;;;;;;;;;4.75;4.75;;;;;14.37;64.82;100607.19;4976182;28;45296;-75
2022/11/20 14:39:26;;;;;;;;;3.75;3.75;;;;;14.22;65.35;100621.59;4975531;28;45480;-75
2022/11/20 14:41:52;;;;;;;;;7.00;5.00;;;;;13.98;65.45;100614.09;4975873;28;45346;-75
2022/11/20 14:44:23;;;;;;;;;3.50;3.50;;;;;13.90;66.13;100610.13;4976203;28;45263;-76
2022/11/20 14:46:51;;;;;;;;;4.00;4.00;;;;;13.92;66.14;100617.19;4976486;28;45580;-78
2022/11/20 14:49:17;;;;;;;;;5.75;4.75;;;;;14.02;65.74;100622.88;4976430;28;45268;-78
2022/11/20 14:51:42;;;;;;;;;3.75;3.75;;;;;14.04;64.74;100618.22;4976096;28;45393;-71
2022/11/20 14:54:16;;;;;;;;;3.50;3.50;;;;;13.88;64.88;100621.00;4975724;28;45243;-71
2022/11/20 14:56:55;;;;;;;;;3.00;3.00;;;;;13.74;65.83;100634.47;4962419;28;45555;-71
2022/11/20 14:59:29;;;;;;;;;6.75;4.00;;;;;13.39;66.45;100633.00;4956022;28;45563;-72
2022/11/20 15:02:02;;;;;;;;;4.00;2.25;;;;;13.20;67.43;100650.25;4970449;28;47321;-72
2022/11/20 15:04:28;;;;;;;;;2.75;2.75;;;;;12.96;68.28;100642.69;4966544;28;46176;-71
2022/11/20 15:06:55;;;;;;;;;3.00;2.00;;;;;12.90;69.36;100660.06;4968237;28;45354;-72
2022/11/20 15:09:22;;;;;;;;;6.00;4.50;;;;;12.63;69.67;100648.16;4960516;28;46120;-72
2022/11/20 15:11:55;;;;;;;;;5.50;5.00;;;;;12.47;70.26;100661.59;4954688;28;47434;-70
2022/11/20 15:14:20;;;;;;;;;7.00;4.00;;;;;12.32;71.36;100659.75;4972609;28;45407;-76
2022/11/20 15:16:46;;;;;;;;;6.00;4.50;;;;;12.21;71.30;100660.31;4946373;28;45879;-73
2022/11/20 15:19:18;;;;;;;;;4.00;3.00;;;;;12.04;71.55;100660.34;4974536;28;45417;-71
2022/11/20 15:21:44;;;;;;;;;7.25;4.25;;;;;11.77;71.08;100634.94;4968763;28;45902;-73
2022/11/20 15:24:09;;;;;;;;;5.25;3.50;;;;;11.90;72.04;100668.28;4967546;28;45315;-75
2022/11/20 15:26:37;;;;;;;;;2.75;0.75;;;;;11.89;71.59;100680.84;4965967;28;45385;-72
2022/11/20 15:29:04;;;;;;;;;1.00;1.00;;;;;11.67;71.50;100651.50;4970451;28;46281;-72
2022/11/20 15:31:29;;;;;;;;;2.50;2.50;;;;;11.83;71.23;100683.81;4974033;28;46325;-72
2022/11/20 15:33:54;;;;;;;;;4.50;4.50;;;;;11.74;71.48;100673.53;4970085;28;45476;-74
2022/11/20 15:36:20;;;;;;;;;5.00;2.50;;;;;11.83;71.05;100674.91;4957157;28;45632;-72
2022/11/20 15:38:45;;;;;;;;;4.00;2.75;;;;;11.81;70.47;100680.38;4955397;28;46296;-75
2022/11/20 15:41:11;;;;;;;;;3.50;2.50;;;;;11.87;70.22;100679.19;4976354;28;46051;-71
2022/11/20 15:43:37;;;;;;;;;3.00;3.00;;;;;11.85;69.77;100678.38;4976551;28;45401;-71
2022/11/20 15:46:15;;;;;;;;;4.00;2.75;;;;;11.85;69.59;100692.69;4969497;28;45404;-71
2022/11/20 15:48:44;;;;;;;;;3.00;3.00;;;;;11.68;68.57;100679.22;4974365;28;45427;-71
2022/11/20 15:51:09;;;;;;;;;3.00;3.00;;;;;11.72;68.16;100699.63;4967187;28;45500;-73
2022/11/20 15:53:35;;;;;;;;;1.50;1.00;;;;;11.52;67.99;100671.09;4963123;28;45527;-72
2022/11/20 15:56:01;;;;;;;;;2.00;2.00;;;;;11.58;67.19;100703.00;4977830;28;45572;-70
2022/11/20 15:58:26;;;;;;;;;2.00;2.00;;;;;11.38;66.69;100673.63;4977622;28;45370;-71
2022/11/20 16:00:52;;;;;;;;;4.00;2.25;;;;;11.50;65.92;100698.94;4977649;28;45385;-72
2022/11/20 16:03:18;;;;;;;;;1.75;1.75;;;;;11.40;65.21;100685.13;4977604;28;45368;-75
2022/11/20 16:05:44;;;;;;;;;1.50;1.00;;;;;11.39;65.57;100694.16;4956910;28;45469;-73
2022/11/20 16:08:09;;;;;;;;;4.25;1.50;;;;;11.35;65.14;100703.28;4971371;28;45250;-71
2022/11/20 16:10:35;;;;;;;;;2.00;2.00;;;;;11.31;65.78;100699.88;4977668;28;46110;-75
2022/11/20 16:15:52;;;;;;;;;3.00;3.00;;;;;11.32;65.80;100714.16;4977860;28;45338;-73
2022/11/20 16:18:20;;;;;;;;;2.00;2.00;;;;;11.26;66.22;100719.84;4977623;28;45582;-72
2022/11/20 16:20:47;;;;;;;;;3.00;3.00;;;;;11.15;66.26;100716.78;4977718;28;46478;-72
2022/11/20 16:23:13;;;;;;;;;2.00;2.00;;;;;11.13;66.68;100735.69;4977425;28;45480;-78
2022/11/20 16:25:38;;;;;;;;;3.00;1.00;;;;;11.02;66.77;100729.94;4979717;28;45239;-73
2022/11/20 16:28:04;;;;;;;;;3.50;2.25;;;;;10.73;67.65;100698.25;4980357;28;45318;-73
2022/11/20 16:30:32;;;;;;;;;3.50;2.50;;;;;10.82;67.99;100728.19;4981175;28;45329;-73
2022/11/20 16:32:59;;;;;;;;;2.75;2.00;;;;;10.76;68.92;100714.22;4978477;28;45493;-72
2022/11/20 16:35:27;;;;;;;;;8.00;2.00;;;;;10.76;68.96;100716.91;4971764;28;45658;-70
2022/11/20 16:37:53;;;;;;;;;4.00;3.00;;;;;10.77;68.97;100726.69;4974056;28;46968;-68
2022/11/20 16:40:19;;;;;;;;;2.25;1.75;;;;;10.63;69.36;100711.25;4961369;28;45992;-69
2022/11/20 16:42:44;;;;;;;;;2.50;2.50;;;;;10.66;69.62;100715.59;4970156;28;45454;-70
2022/11/20 16:45:10;;;;;;;;;5.00;3.50;;;;;10.64;69.72;100718.34;4961595;28;45858;-71
2022/11/20 16:47:35;;;;;;;;;3.50;3.50;;;;;10.57;70.25;100720.44;4969732;28;45604;-69
2022/11/20 16:50:02;;;;;;;;;3.00;3.00;;;;;10.55;69.81;100713.41;4970560;28;46106;-71
2022/11/20 16:52:28;;;;;;;;;3.00;3.00;;;;;10.44;69.94;100697.84;4960658;28;45626;-68
2022/11/20 16:54:54;;;;;;;;;4.00;4.00;;;;;10.57;69.79;100719.56;4961864;28;45359;-71
2022/11/20 16:57:19;;;;;;;;;0.50;0.00;;;;;10.57;69.97;100714.19;4949574;28;45637;-69
2022/11/20 16:59:46;;;;;;;;;0.25;0.25;;;;;10.54;69.67;100714.38;4973425;28;45416;-69
2022/11/20 17:02:13;;;;;;;;;3.75;3.00;;;;;10.40;69.76;100701.56;4974450;28;45516;-70
2022/11/20 17:04:38;;;;;;;;;6.50;4.00;;;;;10.51;69.78;100719.84;4966783;28;46539;-70
2022/11/20 17:07:04;;;;;;;;;4.75;3.25;;;;;10.48;69.70;100709.25;4956858;28;46236;-68